sensor_id;sensor_type;location;lat;lon;timestamp;temperature;humidity
26342;DHT22;14054;50.108;8.640;2022-10-23T00:02:23;12.70;99.90
26342;DHT22;14054;50.108;8.640;2022-10-23T00:04:49;12.70;99.90
26342;DHT22;14054;50.108;8.640;2022-10-23T00:07:15;12.80;99.90
26342;DHT22;14054;50.108;8.640;2022-10-23T00:09:40;12.80;99.90
26342;DHT22;14054;50.108;8.640;2022-10-23T00:12:05;12.70;99.90
26342;DHT22;14054;50.108;8.640;2022-10-23T00:14:31;12.70;99.90
26342;DHT22;14054;50.108;8.640;2022-10-23T00:16:56;12.70;99.90
26342;DHT22;14054;50.108;8.640;2022-10-23T00:19:22;12.70;99.90
26342;DHT22;14054;50.108;8.640;2022-10-23T00:21:47;12.80;99.90
26342;DHT22;14054;50.108;8.640;2022-10-23T00:24:13;12.70;99.90
26342;DHT22;14054;50.108;8.640;2022-10-23T00:26:38;12.70;99.90
26342;DHT22;14054;50.108;8.640;2022-10-23T00:29:05;12.50;99.90
26342;DHT22;14054;50.108;8.640;2022-10-23T00:31:30;12.40;99.90
26342;DHT22;14054;50.108;8.640;2022-10-23T00:33:56;12.40;99.90
26342;DHT22;14054;50.108;8.640;2022-10-23T00:36:22;12.60;99.90
26342;DHT22;14054;50.108;8.640;2022-10-23T00:38:47;12.70;99.90
26342;DHT22;14054;50.108;8.640;2022-10-23T00:41:15;12.60;99.90
26342;DHT22;14054;50.108;8.640;2022-10-23T00:43:59;12.50;99.90
26342;DHT22;14054;50.108;8.640;2022-10-23T00:46:24;12.40;99.90
26342;DHT22;14054;50.108;8.640;2022-10-23T00:48:50;12.40;99.90
26342;DHT22;14054;50.108;8.640;2022-10-23T00:51:15;12.40;99.90
26342;DHT22;14054;50.108;8.640;2022-10-23T00:53:42;12.30;99.90
26342;DHT22;14054;50.108;8.640;2022-10-23T00:56:08;12.30;99.90
26342;DHT22;14054;50.108;8.640;2022-10-23T00:58:33;12.40;99.90
26342;DHT22;14054;50.108;8.640;2022-10-23T01:00:59;12.30;99.90
26342;DHT22;14054;50.108;8.640;2022-10-23T01:03:25;12.50;99.90
26342;DHT22;14054;50.108;8.640;2022-10-23T01:08:37;12.40;99.90
26342;DHT22;14054;50.108;8.640;2022-10-23T01:11:05;12.40;99.90
26342;DHT22;14054;50.108;8.640;2022-10-23T01:16:03;12.40;99.90
26342;DHT22;14054;50.108;8.640;2022-10-23T01:19:14;12.50;99.90
26342;DHT22;14054;50.108;8.640;2022-10-23T01:21:22;12.50;99.90
26342;DHT22;14054;50.108;8.640;2022-10-23T01:23:59;12.50;99.90
26342;DHT22;14054;50.108;8.640;2022-10-23T01:28:52;12.40;99.90
26342;DHT22;14054;50.108;8.640;2022-10-23T01:31:33;12.40;99.90
26342;DHT22;14054;50.108;8.640;2022-10-23T01:34:02;12.30;99.90
26342;DHT22;14054;50.108;8.640;2022-10-23T01:36:30;12.30;99.90
26342;DHT22;14054;50.108;8.640;2022-10-23T01:39:04;12.40;99.90
26342;DHT22;14054;50.108;8.640;2022-10-23T01:41:34;12.30;99.90
26342;DHT22;14054;50.108;8.640;2022-10-23T01:44:03;12.20;99.90
26342;DHT22;14054;50.108;8.640;2022-10-23T01:46:30;12.20;99.90
26342;DHT22;14054;50.108;8.640;2022-10-23T01:48:56;12.20;99.90
26342;DHT22;14054;50.108;8.640;2022-10-23T01:51:23;12.20;99.90
26342;DHT22;14054;50.108;8.640;2022-10-23T01:53:49;12.10;99.90
26342;DHT22;14054;50.108;8.640;2022-10-23T01:56:17;12.10;99.90
26342;DHT22;14054;50.108;8.640;2022-10-23T01:58:47;12.10;99.90
26342;DHT22;14054;50.108;8.640;2022-10-23T02:01:14;12.10;99.90
26342;DHT22;14054;50.108;8.640;2022-10-23T02:03:42;12.10;99.90
26342;DHT22;14054;50.108;8.640;2022-10-23T02:06:08;12.10;99.90
26342;DHT22;14054;50.108;8.640;2022-10-23T02:08:34;12.20;99.90
26342;DHT22;14054;50.108;8.640;2022-10-23T02:11:03;12.20;99.90
26342;DHT22;14054;50.108;8.640;2022-10-23T02:13:37;12.20;99.90
26342;DHT22;14054;50.108;8.640;2022-10-23T02:16:15;12.10;99.90
26342;DHT22;14054;50.108;8.640;2022-10-23T02:18:45;12.10;99.90
26342;DHT22;14054;50.108;8.640;2022-10-23T02:21:13;12.10;99.90
26342;DHT22;14054;50.108;8.640;2022-10-23T02:23:48;12.10;99.90
26342;DHT22;14054;50.108;8.640;2022-10-23T02:26:21;12.00;99.90
26342;DHT22;14054;50.108;8.640;2022-10-23T02:28:48;12.00;99.90
26342;DHT22;14054;50.108;8.640;2022-10-23T02:31:16;12.00;99.90
26342;DHT22;14054;50.108;8.640;2022-10-23T02:33:43;12.00;99.90
26342;DHT22;14054;50.108;8.640;2022-10-23T02:36:09;12.00;99.90
26342;DHT22;14054;50.108;8.640;2022-10-23T02:38:39;12.00;99.90
26342;DHT22;14054;50.108;8.640;2022-10-23T02:41:22;12.00;99.90
26342;DHT22;14054;50.108;8.640;2022-10-23T02:43:52;11.90;99.90
26342;DHT22;14054;50.108;8.640;2022-10-23T02:46:24;11.90;99.90
26342;DHT22;14054;50.108;8.640;2022-10-23T02:49:08;11.90;99.90
26342;DHT22;14054;50.108;8.640;2022-10-23T02:51:43;12.00;99.90
26342;DHT22;14054;50.108;8.640;2022-10-23T02:54:14;12.10;99.90
26342;DHT22;14054;50.108;8.640;2022-10-23T02:59:18;12.00;99.90
26342;DHT22;14054;50.108;8.640;2022-10-23T03:01:52;12.00;99.90
26342;DHT22;14054;50.108;8.640;2022-10-23T03:04:21;12.00;99.90
26342;DHT22;14054;50.108;8.640;2022-10-23T03:06:48;12.10;99.90
26342;DHT22;14054;50.108;8.640;2022-10-23T03:09:14;12.00;99.90
26342;DHT22;14054;50.108;8.640;2022-10-23T03:11:39;12.00;99.90
26342;DHT22;14054;50.108;8.640;2022-10-23T03:14:05;12.00;99.90
26342;DHT22;14054;50.108;8.640;2022-10-23T03:16:30;11.90;99.90
26342;DHT22;14054;50.108;8.640;2022-10-23T03:18:56;11.90;99.90
26342;DHT22;14054;50.108;8.640;2022-10-23T03:21:21;11.80;99.90
26342;DHT22;14054;50.108;8.640;2022-10-23T03:23:46;11.80;99.90
26342;DHT22;14054;50.108;8.640;2022-10-23T03:26:12;11.80;99.90
26342;DHT22;14054;50.108;8.640;2022-10-23T03:28:37;11.90;99.90
26342;DHT22;14054;50.108;8.640;2022-10-23T03:31:03;11.90;99.90
26342;DHT22;14054;50.108;8.640;2022-10-23T03:33:29;11.80;99.90
26342;DHT22;14054;50.108;8.640;2022-10-23T03:35:54;11.70;99.90
26342;DHT22;14054;50.108;8.640;2022-10-23T03:38:20;11.70;99.90
26342;DHT22;14054;50.108;8.640;2022-10-23T03:40:45;11.60;99.90
26342;DHT22;14054;50.108;8.640;2022-10-23T03:43:10;11.50;99.90
26342;DHT22;14054;50.108;8.640;2022-10-23T03:45:36;11.50;99.90
26342;DHT22;14054;50.108;8.640;2022-10-23T03:48:03;11.50;99.90
26342;DHT22;14054;50.108;8.640;2022-10-23T03:50:28;11.40;99.90
26342;DHT22;14054;50.108;8.640;2022-10-23T03:52:54;11.40;99.90
26342;DHT22;14054;50.108;8.640;2022-10-23T03:55:19;11.40;99.90
26342;DHT22;14054;50.108;8.640;2022-10-23T03:57:44;11.40;99.90
26342;DHT22;14054;50.108;8.640;2022-10-23T04:00:10;11.40;99.90
26342;DHT22;14054;50.108;8.640;2022-10-23T04:02:35;11.40;99.90
26342;DHT22;14054;50.108;8.640;2022-10-23T04:05:01;11.40;99.90
26342;DHT22;14054;50.108;8.640;2022-10-23T04:07:26;11.40;99.90
26342;DHT22;14054;50.108;8.640;2022-10-23T04:09:52;11.50;99.90
26342;DHT22;14054;50.108;8.640;2022-10-23T04:12:17;11.50;99.90
26342;DHT22;14054;50.108;8.640;2022-10-23T04:14:42;11.50;99.90
26342;DHT22;14054;50.108;8.640;2022-10-23T04:17:08;11.60;99.90
26342;DHT22;14054;50.108;8.640;2022-10-23T04:19:33;11.60;99.90
26342;DHT22;14054;50.108;8.640;2022-10-23T04:21:59;11.60;99.90
26342;DHT22;14054;50.108;8.640;2022-10-23T04:24:24;11.60;99.90
26342;DHT22;14054;50.108;8.640;2022-10-23T04:26:50;11.60;99.90
26342;DHT22;14054;50.108;8.640;2022-10-23T04:29:16;11.60;99.90
26342;DHT22;14054;50.108;8.640;2022-10-23T04:31:41;11.60;99.90
26342;DHT22;14054;50.108;8.640;2022-10-23T04:34:07;11.60;99.90
26342;DHT22;14054;50.108;8.640;2022-10-23T04:36:32;11.80;99.90
26342;DHT22;14054;50.108;8.640;2022-10-23T04:38:58;11.80;99.90
26342;DHT22;14054;50.108;8.640;2022-10-23T04:41:23;11.80;99.90
26342;DHT22;14054;50.108;8.640;2022-10-23T04:43:49;11.80;99.90
26342;DHT22;14054;50.108;8.640;2022-10-23T04:46:14;11.90;99.90
26342;DHT22;14054;50.108;8.640;2022-10-23T04:48:40;11.90;99.90
26342;DHT22;14054;50.108;8.640;2022-10-23T04:51:05;11.90;99.90
26342;DHT22;14054;50.108;8.640;2022-10-23T04:53:31;11.90;99.90
26342;DHT22;14054;50.108;8.640;2022-10-23T04:55:57;11.80;99.90
26342;DHT22;14054;50.108;8.640;2022-10-23T04:58:22;11.80;99.90
26342;DHT22;14054;50.108;8.640;2022-10-23T05:00:49;11.90;99.90
26342;DHT22;14054;50.108;8.640;2022-10-23T05:03:14;11.90;99.90
26342;DHT22;14054;50.108;8.640;2022-10-23T05:05:40;11.90;99.90
26342;DHT22;14054;50.108;8.640;2022-10-23T05:08:06;11.90;99.90
26342;DHT22;14054;50.108;8.640;2022-10-23T05:10:31;11.90;99.90
26342;DHT22;14054;50.108;8.640;2022-10-23T05:12:57;11.80;99.90
26342;DHT22;14054;50.108;8.640;2022-10-23T05:15:22;11.80;99.90
26342;DHT22;14054;50.108;8.640;2022-10-23T05:17:48;11.70;99.90
26342;DHT22;14054;50.108;8.640;2022-10-23T05:20:17;11.70;99.90
26342;DHT22;14054;50.108;8.640;2022-10-23T05:22:44;11.70;99.90
26342;DHT22;14054;50.108;8.640;2022-10-23T05:25:10;11.90;99.90
26342;DHT22;14054;50.108;8.640;2022-10-23T05:27:36;11.80;99.90
26342;DHT22;14054;50.108;8.640;2022-10-23T05:30:02;11.80;99.90
26342;DHT22;14054;50.108;8.640;2022-10-23T05:32:28;11.70;99.90
26342;DHT22;14054;50.108;8.640;2022-10-23T05:34:53;11.70;99.90
26342;DHT22;14054;50.108;8.640;2022-10-23T05:37:19;11.60;99.90
26342;DHT22;14054;50.108;8.640;2022-10-23T05:39:45;11.60;99.90
26342;DHT22;14054;50.108;8.640;2022-10-23T05:42:10;11.60;99.90
26342;DHT22;14054;50.108;8.640;2022-10-23T05:44:36;11.60;99.90
26342;DHT22;14054;50.108;8.640;2022-10-23T05:47:01;11.60;99.90
26342;DHT22;14054;50.108;8.640;2022-10-23T05:49:27;11.60;99.90
26342;DHT22;14054;50.108;8.640;2022-10-23T05:51:52;11.50;99.90
26342;DHT22;14054;50.108;8.640;2022-10-23T05:54:17;11.50;99.90
26342;DHT22;14054;50.108;8.640;2022-10-23T05:56:43;11.50;99.90
26342;DHT22;14054;50.108;8.640;2022-10-23T05:59:08;11.50;99.90
26342;DHT22;14054;50.108;8.640;2022-10-23T06:01:34;11.40;99.90
26342;DHT22;14054;50.108;8.640;2022-10-23T06:04:00;11.50;99.90
26342;DHT22;14054;50.108;8.640;2022-10-23T06:06:25;11.50;99.90
26342;DHT22;14054;50.108;8.640;2022-10-23T06:08:51;11.50;99.90
26342;DHT22;14054;50.108;8.640;2022-10-23T06:11:16;11.50;99.90
26342;DHT22;14054;50.108;8.640;2022-10-23T06:13:42;11.40;99.90
26342;DHT22;14054;50.108;8.640;2022-10-23T06:18:34;11.50;99.90
26342;DHT22;14054;50.108;8.640;2022-10-23T06:20:59;11.40;99.90
26342;DHT22;14054;50.108;8.640;2022-10-23T06:23:25;11.40;99.90
26342;DHT22;14054;50.108;8.640;2022-10-23T06:25:51;11.40;99.90
26342;DHT22;14054;50.108;8.640;2022-10-23T06:28:17;11.30;99.90
26342;DHT22;14054;50.108;8.640;2022-10-23T06:30:43;11.40;99.90
26342;DHT22;14054;50.108;8.640;2022-10-23T06:33:08;11.40;99.90
26342;DHT22;14054;50.108;8.640;2022-10-23T06:35:33;11.30;99.90
26342;DHT22;14054;50.108;8.640;2022-10-23T06:37:59;11.30;99.90
26342;DHT22;14054;50.108;8.640;2022-10-23T06:40:24;11.50;99.90
26342;DHT22;14054;50.108;8.640;2022-10-23T06:42:50;11.40;99.90
26342;DHT22;14054;50.108;8.640;2022-10-23T06:45:15;11.40;99.90
26342;DHT22;14054;50.108;8.640;2022-10-23T06:47:41;11.40;99.90
26342;DHT22;14054;50.108;8.640;2022-10-23T06:50:06;11.40;99.90
26342;DHT22;14054;50.108;8.640;2022-10-23T06:52:32;11.40;99.90
26342;DHT22;14054;50.108;8.640;2022-10-23T06:54:57;11.40;99.90
26342;DHT22;14054;50.108;8.640;2022-10-23T06:57:22;11.50;99.90
26342;DHT22;14054;50.108;8.640;2022-10-23T06:59:48;11.60;99.90
26342;DHT22;14054;50.108;8.640;2022-10-23T07:02:14;11.60;99.90
26342;DHT22;14054;50.108;8.640;2022-10-23T07:04:39;11.80;99.90
26342;DHT22;14054;50.108;8.640;2022-10-23T07:07:05;11.90;99.90
26342;DHT22;14054;50.108;8.640;2022-10-23T07:09:31;12.00;99.90
26342;DHT22;14054;50.108;8.640;2022-10-23T07:11:56;12.00;99.90
26342;DHT22;14054;50.108;8.640;2022-10-23T07:14:22;12.00;99.90
26342;DHT22;14054;50.108;8.640;2022-10-23T07:16:47;12.10;99.90
26342;DHT22;14054;50.108;8.640;2022-10-23T07:19:13;12.20;99.90
26342;DHT22;14054;50.108;8.640;2022-10-23T07:21:38;12.30;99.90
26342;DHT22;14054;50.108;8.640;2022-10-23T07:24:03;12.50;99.90
26342;DHT22;14054;50.108;8.640;2022-10-23T07:26:29;12.60;99.90
26342;DHT22;14054;50.108;8.640;2022-10-23T07:28:54;12.60;99.90
26342;DHT22;14054;50.108;8.640;2022-10-23T07:31:20;12.50;99.90
26342;DHT22;14054;50.108;8.640;2022-10-23T07:33:46;12.50;99.90
26342;DHT22;14054;50.108;8.640;2022-10-23T07:36:12;12.60;99.90
26342;DHT22;14054;50.108;8.640;2022-10-23T07:38:37;12.60;99.90
26342;DHT22;14054;50.108;8.640;2022-10-23T07:41:03;12.60;99.90
26342;DHT22;14054;50.108;8.640;2022-10-23T07:43:28;12.60;99.90
26342;DHT22;14054;50.108;8.640;2022-10-23T07:45:54;12.60;99.90
26342;DHT22;14054;50.108;8.640;2022-10-23T07:48:19;12.70;99.90
26342;DHT22;14054;50.108;8.640;2022-10-23T07:50:46;12.70;99.90
26342;DHT22;14054;50.108;8.640;2022-10-23T07:53:19;12.80;99.90
26342;DHT22;14054;50.108;8.640;2022-10-23T07:55:55;12.90;99.90
26342;DHT22;14054;50.108;8.640;2022-10-23T07:58:21;13.00;99.90
26342;DHT22;14054;50.108;8.640;2022-10-23T08:00:48;13.10;99.90
26342;DHT22;14054;50.108;8.640;2022-10-23T08:03:18;13.20;99.90
26342;DHT22;14054;50.108;8.640;2022-10-23T08:05:44;13.30;99.90
26342;DHT22;14054;50.108;8.640;2022-10-23T08:08:10;13.40;99.90
26342;DHT22;14054;50.108;8.640;2022-10-23T08:10:35;13.50;99.90
26342;DHT22;14054;50.108;8.640;2022-10-23T08:13:00;13.60;99.90
26342;DHT22;14054;50.108;8.640;2022-10-23T08:15:26;13.60;99.90
26342;DHT22;14054;50.108;8.640;2022-10-23T08:17:51;13.70;99.90
26342;DHT22;14054;50.108;8.640;2022-10-23T08:20:17;13.90;99.90
26342;DHT22;14054;50.108;8.640;2022-10-23T08:22:42;14.00;99.90
26342;DHT22;14054;50.108;8.640;2022-10-23T08:25:08;14.10;99.90
26342;DHT22;14054;50.108;8.640;2022-10-23T08:27:33;14.20;99.90
26342;DHT22;14054;50.108;8.640;2022-10-23T08:29:59;14.20;99.90
26342;DHT22;14054;50.108;8.640;2022-10-23T08:32:27;14.20;99.90
26342;DHT22;14054;50.108;8.640;2022-10-23T08:34:52;14.20;99.90
26342;DHT22;14054;50.108;8.640;2022-10-23T08:37:18;14.30;99.90
26342;DHT22;14054;50.108;8.640;2022-10-23T08:39:43;14.40;99.90
26342;DHT22;14054;50.108;8.640;2022-10-23T08:42:16;14.50;99.90
26342;DHT22;14054;50.108;8.640;2022-10-23T08:44:45;14.40;99.90
26342;DHT22;14054;50.108;8.640;2022-10-23T08:47:18;14.60;99.90
26342;DHT22;14054;50.108;8.640;2022-10-23T08:49:53;14.60;99.90
26342;DHT22;14054;50.108;8.640;2022-10-23T08:52:31;14.70;99.90
26342;DHT22;14054;50.108;8.640;2022-10-23T08:55:08;14.90;99.90
26342;DHT22;14054;50.108;8.640;2022-10-23T08:57:41;15.00;99.90
26342;DHT22;14054;50.108;8.640;2022-10-23T09:00:13;15.20;99.90
26342;DHT22;14054;50.108;8.640;2022-10-23T09:05:15;15.40;99.90
26342;DHT22;14054;50.108;8.640;2022-10-23T09:13:39;15.40;99.90
26342;DHT22;14054;50.108;8.640;2022-10-23T09:18:51;15.30;99.90
26342;DHT22;14054;50.108;8.640;2022-10-23T09:21:17;15.30;99.90
26342;DHT22;14054;50.108;8.640;2022-10-23T09:23:43;15.30;99.90
26342;DHT22;14054;50.108;8.640;2022-10-23T09:26:13;15.40;99.90
26342;DHT22;14054;50.108;8.640;2022-10-23T09:28:45;15.30;99.90
26342;DHT22;14054;50.108;8.640;2022-10-23T09:31:11;15.30;99.90
26342;DHT22;14054;50.108;8.640;2022-10-23T09:33:37;15.30;99.90
26342;DHT22;14054;50.108;8.640;2022-10-23T09:36:03;15.30;99.90
26342;DHT22;14054;50.108;8.640;2022-10-23T09:38:30;15.30;99.90
26342;DHT22;14054;50.108;8.640;2022-10-23T09:41:00;15.30;99.90
26342;DHT22;14054;50.108;8.640;2022-10-23T09:43:27;15.40;99.90
26342;DHT22;14054;50.108;8.640;2022-10-23T09:45:57;15.50;99.90
26342;DHT22;14054;50.108;8.640;2022-10-23T09:48:23;15.50;99.90
26342;DHT22;14054;50.108;8.640;2022-10-23T09:50:50;15.60;99.90
26342;DHT22;14054;50.108;8.640;2022-10-23T09:53:16;15.70;99.90
26342;DHT22;14054;50.108;8.640;2022-10-23T09:55:49;16.00;99.90
26342;DHT22;14054;50.108;8.640;2022-10-23T09:58:52;16.20;99.90
26342;DHT22;14054;50.108;8.640;2022-10-23T10:01:20;16.30;99.90
26342;DHT22;14054;50.108;8.640;2022-10-23T10:03:49;16.30;99.90
26342;DHT22;14054;50.108;8.640;2022-10-23T10:06:20;16.60;99.90
26342;DHT22;14054;50.108;8.640;2022-10-23T10:08:48;16.80;99.90
26342;DHT22;14054;50.108;8.640;2022-10-23T10:11:29;17.00;99.90
26342;DHT22;14054;50.108;8.640;2022-10-23T10:14:02;17.20;99.90
26342;DHT22;14054;50.108;8.640;2022-10-23T10:16:40;17.60;99.90
26342;DHT22;14054;50.108;8.640;2022-10-23T10:19:18;17.50;99.90
26342;DHT22;14054;50.108;8.640;2022-10-23T10:24:52;17.30;99.90
26342;DHT22;14054;50.108;8.640;2022-10-23T10:27:30;17.20;99.90
26342;DHT22;14054;50.108;8.640;2022-10-23T10:38:03;16.60;99.90
26342;DHT22;14054;50.108;8.640;2022-10-23T10:45:51;16.70;99.90
26342;DHT22;14054;50.108;8.640;2022-10-23T10:48:33;16.70;99.90
26342;DHT22;14054;50.108;8.640;2022-10-23T10:51:04;16.70;99.90
26342;DHT22;14054;50.108;8.640;2022-10-23T10:56:05;16.70;99.90
26342;DHT22;14054;50.108;8.640;2022-10-23T10:58:37;16.60;99.90
26342;DHT22;14054;50.108;8.640;2022-10-23T11:01:07;16.50;99.90
26342;DHT22;14054;50.108;8.640;2022-10-23T11:03:40;16.40;99.90
26342;DHT22;14054;50.108;8.640;2022-10-23T11:06:12;16.30;99.90
26342;DHT22;14054;50.108;8.640;2022-10-23T11:08:39;16.30;99.90
26342;DHT22;14054;50.108;8.640;2022-10-23T11:11:24;16.30;99.90
26342;DHT22;14054;50.108;8.640;2022-10-23T11:13:51;16.30;99.90
26342;DHT22;14054;50.108;8.640;2022-10-23T11:18:51;16.80;99.90
26342;DHT22;14054;50.108;8.640;2022-10-23T11:21:23;17.40;99.90
26342;DHT22;14054;50.108;8.640;2022-10-23T11:26:36;18.20;99.90
26342;DHT22;14054;50.108;8.640;2022-10-23T11:29:22;18.20;99.90
26342;DHT22;14054;50.108;8.640;2022-10-23T11:32:06;18.00;99.90
26342;DHT22;14054;50.108;8.640;2022-10-23T11:34:53;18.00;99.90
26342;DHT22;14054;50.108;8.640;2022-10-23T11:37:21;18.00;99.90
26342;DHT22;14054;50.108;8.640;2022-10-23T11:42:44;18.40;99.90
26342;DHT22;14054;50.108;8.640;2022-10-23T11:45:25;18.50;99.90
26342;DHT22;14054;50.108;8.640;2022-10-23T11:47:58;18.40;99.90
26342;DHT22;14054;50.108;8.640;2022-10-23T11:50:26;18.50;99.90
26342;DHT22;14054;50.108;8.640;2022-10-23T11:52:56;18.60;99.90
26342;DHT22;14054;50.108;8.640;2022-10-23T11:55:23;18.40;99.90
26342;DHT22;14054;50.108;8.640;2022-10-23T11:58:07;18.30;99.90
26342;DHT22;14054;50.108;8.640;2022-10-23T12:00:37;18.40;99.90
26342;DHT22;14054;50.108;8.640;2022-10-23T12:03:04;18.70;99.90
26342;DHT22;14054;50.108;8.640;2022-10-23T12:05:31;19.30;99.90
26342;DHT22;14054;50.108;8.640;2022-10-23T12:07:59;20.80;99.90
26342;DHT22;14054;50.108;8.640;2022-10-23T12:10:26;23.10;99.90
26342;DHT22;14054;50.108;8.640;2022-10-23T12:12:55;25.70;99.90
26342;DHT22;14054;50.108;8.640;2022-10-23T12:15:21;26.80;97.30
26342;DHT22;14054;50.108;8.640;2022-10-23T12:17:47;26.80;94.40
26342;DHT22;14054;50.108;8.640;2022-10-23T12:20:17;26.80;95.50
26342;DHT22;14054;50.108;8.640;2022-10-23T12:22:49;26.90;94.30
26342;DHT22;14054;50.108;8.640;2022-10-23T12:25:19;26.80;93.60
26342;DHT22;14054;50.108;8.640;2022-10-23T12:27:48;27.20;93.50
26342;DHT22;14054;50.108;8.640;2022-10-23T12:32:52;27.20;91.30
26342;DHT22;14054;50.108;8.640;2022-10-23T12:40:27;27.00;91.80
26342;DHT22;14054;50.108;8.640;2022-10-23T12:42:57;28.30;87.00
26342;DHT22;14054;50.108;8.640;2022-10-23T12:45:27;28.20;83.70
26342;DHT22;14054;50.108;8.640;2022-10-23T12:47:54;28.40;81.60
26342;DHT22;14054;50.108;8.640;2022-10-23T12:50:24;27.90;84.00
26342;DHT22;14054;50.108;8.640;2022-10-23T12:52:50;27.50;83.60
26342;DHT22;14054;50.108;8.640;2022-10-23T12:55:16;27.90;82.70
26342;DHT22;14054;50.108;8.640;2022-10-23T12:57:42;26.90;89.90
26342;DHT22;14054;50.108;8.640;2022-10-23T13:00:08;25.90;94.50
26342;DHT22;14054;50.108;8.640;2022-10-23T13:02:37;25.00;98.20
26342;DHT22;14054;50.108;8.640;2022-10-23T13:05:04;24.10;99.90
26342;DHT22;14054;50.108;8.640;2022-10-23T13:07:31;24.60;99.90
26342;DHT22;14054;50.108;8.640;2022-10-23T13:09:58;23.90;99.90
26342;DHT22;14054;50.108;8.640;2022-10-23T13:12:26;23.10;99.90
26342;DHT22;14054;50.108;8.640;2022-10-23T13:14:54;22.70;99.90
26342;DHT22;14054;50.108;8.640;2022-10-23T13:17:20;22.00;99.90
26342;DHT22;14054;50.108;8.640;2022-10-23T13:19:45;21.60;99.90
26342;DHT22;14054;50.108;8.640;2022-10-23T13:22:16;21.40;99.90
26342;DHT22;14054;50.108;8.640;2022-10-23T13:24:42;21.90;99.90
26342;DHT22;14054;50.108;8.640;2022-10-23T13:27:23;21.90;99.90
26342;DHT22;14054;50.108;8.640;2022-10-23T13:29:49;22.10;99.90
26342;DHT22;14054;50.108;8.640;2022-10-23T13:32:24;21.80;99.90
26342;DHT22;14054;50.108;8.640;2022-10-23T13:34:52;22.30;99.90
26342;DHT22;14054;50.108;8.640;2022-10-23T13:37:29;22.20;99.90
26342;DHT22;14054;50.108;8.640;2022-10-23T13:39:59;22.00;99.90
26342;DHT22;14054;50.108;8.640;2022-10-23T13:42:24;21.80;99.90
26342;DHT22;14054;50.108;8.640;2022-10-23T13:44:50;21.50;99.90
26342;DHT22;14054;50.108;8.640;2022-10-23T13:47:15;21.20;99.90
26342;DHT22;14054;50.108;8.640;2022-10-23T13:49:41;21.30;99.90
26342;DHT22;14054;50.108;8.640;2022-10-23T13:52:07;20.80;99.90
26342;DHT22;14054;50.108;8.640;2022-10-23T13:54:34;20.90;99.90
26342;DHT22;14054;50.108;8.640;2022-10-23T13:56:59;20.80;99.90
26342;DHT22;14054;50.108;8.640;2022-10-23T13:59:25;20.60;99.90
26342;DHT22;14054;50.108;8.640;2022-10-23T14:01:50;20.50;99.90
26342;DHT22;14054;50.108;8.640;2022-10-23T14:04:16;20.20;99.90
26342;DHT22;14054;50.108;8.640;2022-10-23T14:06:42;20.10;99.90
26342;DHT22;14054;50.108;8.640;2022-10-23T14:09:10;20.20;99.90
26342;DHT22;14054;50.108;8.640;2022-10-23T14:11:36;20.10;99.90
26342;DHT22;14054;50.108;8.640;2022-10-23T14:14:01;19.90;99.90
26342;DHT22;14054;50.108;8.640;2022-10-23T14:16:27;19.90;99.90
26342;DHT22;14054;50.108;8.640;2022-10-23T14:18:53;20.00;99.90
26342;DHT22;14054;50.108;8.640;2022-10-23T14:21:19;19.90;99.90
26342;DHT22;14054;50.108;8.640;2022-10-23T14:23:45;19.70;99.90
26342;DHT22;14054;50.108;8.640;2022-10-23T14:26:12;19.50;99.90
26342;DHT22;14054;50.108;8.640;2022-10-23T14:28:37;19.50;99.90
26342;DHT22;14054;50.108;8.640;2022-10-23T14:31:03;19.60;99.90
26342;DHT22;14054;50.108;8.640;2022-10-23T14:33:29;19.60;99.90
26342;DHT22;14054;50.108;8.640;2022-10-23T14:35:54;19.50;99.90
26342;DHT22;14054;50.108;8.640;2022-10-23T14:38:19;19.40;99.90
26342;DHT22;14054;50.108;8.640;2022-10-23T14:40:45;19.40;99.90
26342;DHT22;14054;50.108;8.640;2022-10-23T14:43:10;19.30;99.90
26342;DHT22;14054;50.108;8.640;2022-10-23T14:45:36;19.20;99.90
26342;DHT22;14054;50.108;8.640;2022-10-23T14:48:01;19.20;99.90
26342;DHT22;14054;50.108;8.640;2022-10-23T14:50:27;19.20;99.90
26342;DHT22;14054;50.108;8.640;2022-10-23T14:52:53;19.00;99.90
26342;DHT22;14054;50.108;8.640;2022-10-23T14:55:18;18.90;99.90
26342;DHT22;14054;50.108;8.640;2022-10-23T14:57:44;18.80;99.90
26342;DHT22;14054;50.108;8.640;2022-10-23T15:00:09;18.80;99.90
26342;DHT22;14054;50.108;8.640;2022-10-23T15:02:35;18.80;99.90
26342;DHT22;14054;50.108;8.640;2022-10-23T15:05:01;18.70;99.90
26342;DHT22;14054;50.108;8.640;2022-10-23T15:07:26;18.70;99.90
26342;DHT22;14054;50.108;8.640;2022-10-23T15:09:52;18.60;99.90
26342;DHT22;14054;50.108;8.640;2022-10-23T15:12:17;18.50;99.90
26342;DHT22;14054;50.108;8.640;2022-10-23T15:14:42;18.50;99.90
26342;DHT22;14054;50.108;8.640;2022-10-23T15:17:08;18.50;99.90
26342;DHT22;14054;50.108;8.640;2022-10-23T15:19:33;18.50;99.90
26342;DHT22;14054;50.108;8.640;2022-10-23T15:21:59;18.40;99.90
26342;DHT22;14054;50.108;8.640;2022-10-23T15:24:24;18.40;99.90
26342;DHT22;14054;50.108;8.640;2022-10-23T15:26:51;18.40;99.90
26342;DHT22;14054;50.108;8.640;2022-10-23T15:29:16;18.40;99.90
26342;DHT22;14054;50.108;8.640;2022-10-23T15:31:43;18.30;99.90
26342;DHT22;14054;50.108;8.640;2022-10-23T15:34:10;18.20;99.90
26342;DHT22;14054;50.108;8.640;2022-10-23T15:36:35;18.20;99.90
26342;DHT22;14054;50.108;8.640;2022-10-23T15:39:01;18.20;99.90
26342;DHT22;14054;50.108;8.640;2022-10-23T15:41:28;18.20;99.90
26342;DHT22;14054;50.108;8.640;2022-10-23T15:43:54;18.10;99.90
26342;DHT22;14054;50.108;8.640;2022-10-23T15:46:20;18.10;99.90
26342;DHT22;14054;50.108;8.640;2022-10-23T15:48:45;18.00;99.90
26342;DHT22;14054;50.108;8.640;2022-10-23T15:51:11;18.00;99.90
26342;DHT22;14054;50.108;8.640;2022-10-23T15:53:36;18.00;99.90
26342;DHT22;14054;50.108;8.640;2022-10-23T15:56:02;17.90;99.90
26342;DHT22;14054;50.108;8.640;2022-10-23T15:58:27;17.90;99.90
26342;DHT22;14054;50.108;8.640;2022-10-23T16:00:52;17.80;99.90
26342;DHT22;14054;50.108;8.640;2022-10-23T16:03:18;17.80;99.90
26342;DHT22;14054;50.108;8.640;2022-10-23T16:05:43;17.70;99.90
26342;DHT22;14054;50.108;8.640;2022-10-23T16:08:09;17.70;99.90
26342;DHT22;14054;50.108;8.640;2022-10-23T16:10:40;17.80;99.90
26342;DHT22;14054;50.108;8.640;2022-10-23T16:13:06;17.80;99.90
26342;DHT22;14054;50.108;8.640;2022-10-23T16:15:36;17.70;99.90
26342;DHT22;14054;50.108;8.640;2022-10-23T16:18:01;17.70;99.90
26342;DHT22;14054;50.108;8.640;2022-10-23T16:20:27;17.60;99.90
26342;DHT22;14054;50.108;8.640;2022-10-23T16:22:52;17.60;99.90
26342;DHT22;14054;50.108;8.640;2022-10-23T16:25:18;17.60;99.90
26342;DHT22;14054;50.108;8.640;2022-10-23T16:27:43;17.50;99.90
26342;DHT22;14054;50.108;8.640;2022-10-23T16:30:09;17.50;99.90
26342;DHT22;14054;50.108;8.640;2022-10-23T16:32:37;17.50;99.90